sensor_id;sensor_type;location;lat;lon;timestamp;P1;durP1;ratioP1;P2;durP2;ratioP2
20462;SDS011;10390;53.566;9.980;2024-03-25T00:00:20;7.55;;;6.65;;
20462;SDS011;10390;53.566;9.980;2024-03-25T00:02:47;7.75;;;6.43;;
20462;SDS011;10390;53.566;9.980;2024-03-25T00:05:13;8.20;;;6.95;;
20462;SDS011;10390;53.566;9.980;2024-03-25T00:07:40;8.60;;;6.85;;
20462;SDS011;10390;53.566;9.980;2024-03-25T00:10:06;8.75;;;7.07;;
20462;SDS011;10390;53.566;9.980;2024-03-25T00:12:33;8.27;;;7.20;;
20462;SDS011;10390;53.566;9.980;2024-03-25T00:15:01;9.85;;;7.03;;
20462;SDS011;10390;53.566;9.980;2024-03-25T00:17:27;8.13;;;7.07;;
20462;SDS011;10390;53.566;9.980;2024-03-25T00:19:53;10.13;;;7.25;;
20462;SDS011;10390;53.566;9.980;2024-03-25T00:22:19;7.53;;;6.63;;
20462;SDS011;10390;53.566;9.980;2024-03-25T00:24:46;7.78;;;6.97;;
20462;SDS011;10390;53.566;9.980;2024-03-25T00:27:12;8.02;;;7.22;;
20462;SDS011;10390;53.566;9.980;2024-03-25T00:29:38;7.75;;;6.95;;
20462;SDS011;10390;53.566;9.980;2024-03-25T00:32:04;8.75;;;7.10;;
20462;SDS011;10390;53.566;9.980;2024-03-25T00:34:31;8.13;;;7.32;;
20462;SDS011;10390;53.566;9.980;2024-03-25T00:36:57;7.82;;;7.03;;
20462;SDS011;10390;53.566;9.980;2024-03-25T00:39:26;9.07;;;7.07;;
20462;SDS011;10390;53.566;9.980;2024-03-25T00:41:52;8.38;;;6.75;;
20462;SDS011;10390;53.566;9.980;2024-03-25T00:44:18;7.47;;;6.78;;
20462;SDS011;10390;53.566;9.980;2024-03-25T00:46:44;8.15;;;6.78;;
20462;SDS011;10390;53.566;9.980;2024-03-25T00:49:10;7.00;;;6.30;;
20462;SDS011;10390;53.566;9.980;2024-03-25T00:51:36;7.43;;;6.45;;
20462;SDS011;10390;53.566;9.980;2024-03-25T00:54:02;7.60;;;6.47;;
20462;SDS011;10390;53.566;9.980;2024-03-25T00:56:28;7.82;;;6.38;;
20462;SDS011;10390;53.566;9.980;2024-03-25T00:58:54;6.88;;;6.28;;
20462;SDS011;10390;53.566;9.980;2024-03-25T01:01:22;7.47;;;5.93;;
20462;SDS011;10390;53.566;9.980;2024-03-25T01:03:47;7.25;;;6.20;;
20462;SDS011;10390;53.566;9.980;2024-03-25T01:06:13;7.20;;;6.50;;
20462;SDS011;10390;53.566;9.980;2024-03-25T01:08:39;7.68;;;6.88;;
20462;SDS011;10390;53.566;9.980;2024-03-25T01:11:04;7.60;;;6.78;;
20462;SDS011;10390;53.566;9.980;2024-03-25T01:13:31;7.70;;;6.88;;
20462;SDS011;10390;53.566;9.980;2024-03-25T01:15:56;9.30;;;7.03;;
20462;SDS011;10390;53.566;9.980;2024-03-25T01:18:22;8.20;;;6.30;;
20462;SDS011;10390;53.566;9.980;2024-03-25T01:20:48;6.78;;;5.97;;
20462;SDS011;10390;53.566;9.980;2024-03-25T01:23:14;7.25;;;6.45;;
20462;SDS011;10390;53.566;9.980;2024-03-25T01:25:40;7.75;;;6.47;;
20462;SDS011;10390;53.566;9.980;2024-03-25T01:28:06;7.97;;;7.18;;
20462;SDS011;10390;53.566;9.980;2024-03-25T01:30:31;7.85;;;6.55;;
20462;SDS011;10390;53.566;9.980;2024-03-25T01:33:00;8.63;;;6.25;;
20462;SDS011;10390;53.566;9.980;2024-03-25T01:35:26;7.65;;;6.20;;
20462;SDS011;10390;53.566;9.980;2024-03-25T01:37:51;7.57;;;6.18;;
20462;SDS011;10390;53.566;9.980;2024-03-25T01:40:18;6.68;;;5.95;;
20462;SDS011;10390;53.566;9.980;2024-03-25T01:42:43;7.72;;;6.57;;
20462;SDS011;10390;53.566;9.980;2024-03-25T01:45:19;7.78;;;6.38;;
20462;SDS011;10390;53.566;9.980;2024-03-25T01:47:45;7.45;;;6.35;;
20462;SDS011;10390;53.566;9.980;2024-03-25T01:50:11;8.13;;;6.78;;
20462;SDS011;10390;53.566;9.980;2024-03-25T01:52:36;8.38;;;7.20;;
20462;SDS011;10390;53.566;9.980;2024-03-25T01:55:02;7.15;;;6.10;;
20462;SDS011;10390;53.566;9.980;2024-03-25T01:57:30;7.95;;;7.15;;
20462;SDS011;10390;53.566;9.980;2024-03-25T01:59:55;7.38;;;6.65;;
20462;SDS011;10390;53.566;9.980;2024-03-25T02:02:21;8.50;;;6.65;;
20462;SDS011;10390;53.566;9.980;2024-03-25T02:04:47;7.10;;;6.15;;
20462;SDS011;10390;53.566;9.980;2024-03-25T02:07:12;7.07;;;6.38;;
20462;SDS011;10390;53.566;9.980;2024-03-25T02:09:39;7.18;;;6.00;;
20462;SDS011;10390;53.566;9.980;2024-03-25T02:12:05;7.20;;;6.10;;
20462;SDS011;10390;53.566;9.980;2024-03-25T02:14:31;7.05;;;6.10;;
20462;SDS011;10390;53.566;9.980;2024-03-25T02:16:57;7.05;;;6.32;;
20462;SDS011;10390;53.566;9.980;2024-03-25T02:19:22;6.40;;;5.75;;
20462;SDS011;10390;53.566;9.980;2024-03-25T02:21:49;6.97;;;6.28;;
20462;SDS011;10390;53.566;9.980;2024-03-25T02:24:15;7.18;;;6.15;;
20462;SDS011;10390;53.566;9.980;2024-03-25T02:26:43;7.15;;;6.45;;
20462;SDS011;10390;53.566;9.980;2024-03-25T02:29:09;7.43;;;5.65;;
20462;SDS011;10390;53.566;9.980;2024-03-25T02:31:35;6.50;;;5.80;;
20462;SDS011;10390;53.566;9.980;2024-03-25T02:34:00;7.10;;;5.63;;
20462;SDS011;10390;53.566;9.980;2024-03-25T02:36:26;6.72;;;5.93;;
20462;SDS011;10390;53.566;9.980;2024-03-25T02:38:52;6.85;;;5.90;;
20462;SDS011;10390;53.566;9.980;2024-03-25T02:41:17;7.75;;;6.15;;
20462;SDS011;10390;53.566;9.980;2024-03-25T02:43:43;6.88;;;6.18;;
20462;SDS011;10390;53.566;9.980;2024-03-25T02:46:09;7.47;;;6.28;;
20462;SDS011;10390;53.566;9.980;2024-03-25T02:48:34;7.47;;;5.90;;
20462;SDS011;10390;53.566;9.980;2024-03-25T02:51:00;7.13;;;6.13;;
20462;SDS011;10390;53.566;9.980;2024-03-25T02:53:26;7.72;;;5.93;;
20462;SDS011;10390;53.566;9.980;2024-03-25T02:55:51;7.07;;;5.68;;
20462;SDS011;10390;53.566;9.980;2024-03-25T02:58:16;9.00;;;6.82;;
20462;SDS011;10390;53.566;9.980;2024-03-25T03:00:42;6.97;;;6.28;;
20462;SDS011;10390;53.566;9.980;2024-03-25T03:03:08;7.07;;;5.88;;
20462;SDS011;10390;53.566;9.980;2024-03-25T03:05:33;6.47;;;5.68;;
20462;SDS011;10390;53.566;9.980;2024-03-25T03:08:00;6.60;;;5.90;;
20462;SDS011;10390;53.566;9.980;2024-03-25T03:10:25;7.47;;;6.15;;
20462;SDS011;10390;53.566;9.980;2024-03-25T03:12:51;7.30;;;6.55;;
20462;SDS011;10390;53.566;9.980;2024-03-25T03:15:16;7.45;;;6.55;;
20462;SDS011;10390;53.566;9.980;2024-03-25T03:17:42;8.27;;;7.13;;
20462;SDS011;10390;53.566;9.980;2024-03-25T03:20:07;7.55;;;6.40;;
20462;SDS011;10390;53.566;9.980;2024-03-25T03:22:35;6.90;;;5.97;;
20462;SDS011;10390;53.566;9.980;2024-03-25T03:25:00;7.10;;;6.20;;
20462;SDS011;10390;53.566;9.980;2024-03-25T03:27:26;8.07;;;6.13;;
20462;SDS011;10390;53.566;9.980;2024-03-25T03:29:51;6.15;;;5.55;;
20462;SDS011;10390;53.566;9.980;2024-03-25T03:32:17;6.88;;;5.50;;
20462;SDS011;10390;53.566;9.980;2024-03-25T03:34:42;6.75;;;5.95;;
20462;SDS011;10390;53.566;9.980;2024-03-25T03:37:08;6.93;;;5.85;;
20462;SDS011;10390;53.566;9.980;2024-03-25T03:39:33;6.82;;;6.13;;
20462;SDS011;10390;53.566;9.980;2024-03-25T03:41:59;7.40;;;6.03;;
20462;SDS011;10390;53.566;9.980;2024-03-25T03:44:24;7.47;;;6.40;;
20462;SDS011;10390;53.566;9.980;2024-03-25T03:46:50;6.50;;;5.90;;
20462;SDS011;10390;53.566;9.980;2024-03-25T03:49:15;7.18;;;5.65;;
20462;SDS011;10390;53.566;9.980;2024-03-25T03:51:41;7.35;;;6.53;;
20462;SDS011;10390;53.566;9.980;2024-03-25T03:54:06;6.32;;;5.72;;
20462;SDS011;10390;53.566;9.980;2024-03-25T03:56:32;7.35;;;6.65;;
20462;SDS011;10390;53.566;9.980;2024-03-25T03:58:58;6.82;;;6.13;;
20462;SDS011;10390;53.566;9.980;2024-03-25T04:01:23;6.45;;;5.63;;
20462;SDS011;10390;53.566;9.980;2024-03-25T04:03:49;6.28;;;5.45;;
20462;SDS011;10390;53.566;9.980;2024-03-25T04:06:14;6.90;;;6.20;;
20462;SDS011;10390;53.566;9.980;2024-03-25T04:08:40;6.75;;;6.13;;
20462;SDS011;10390;53.566;9.980;2024-03-25T04:11:06;6.90;;;6.20;;
20462;SDS011;10390;53.566;9.980;2024-03-25T04:13:35;6.95;;;6.22;;
20462;SDS011;10390;53.566;9.980;2024-03-25T04:16:04;7.55;;;6.07;;
20462;SDS011;10390;53.566;9.980;2024-03-25T04:18:31;6.95;;;6.25;;
20462;SDS011;10390;53.566;9.980;2024-03-25T04:20:58;8.55;;;7.00;;
20462;SDS011;10390;53.566;9.980;2024-03-25T04:23:24;7.80;;;6.97;;
20462;SDS011;10390;53.566;9.980;2024-03-25T04:25:50;7.53;;;6.78;;
20462;SDS011;10390;53.566;9.980;2024-03-25T04:28:16;8.52;;;6.53;;
20462;SDS011;10390;53.566;9.980;2024-03-25T04:30:41;7.32;;;6.63;;
20462;SDS011;10390;53.566;9.980;2024-03-25T04:33:07;7.28;;;6.57;;
20462;SDS011;10390;53.566;9.980;2024-03-25T04:35:33;8.80;;;6.45;;
20462;SDS011;10390;53.566;9.980;2024-03-25T04:37:59;6.97;;;6.22;;
20462;SDS011;10390;53.566;9.980;2024-03-25T04:40:24;8.82;;;6.72;;
20462;SDS011;10390;53.566;9.980;2024-03-25T04:42:50;7.85;;;6.00;;
20462;SDS011;10390;53.566;9.980;2024-03-25T04:45:16;7.15;;;6.38;;
20462;SDS011;10390;53.566;9.980;2024-03-25T04:47:41;7.38;;;6.53;;
20462;SDS011;10390;53.566;9.980;2024-03-25T04:50:07;7.28;;;5.78;;
20462;SDS011;10390;53.566;9.980;2024-03-25T04:52:34;7.28;;;6.40;;
20462;SDS011;10390;53.566;9.980;2024-03-25T04:54:59;8.27;;;6.20;;
20462;SDS011;10390;53.566;9.980;2024-03-25T04:57:25;6.75;;;6.03;;
20462;SDS011;10390;53.566;9.980;2024-03-25T04:59:50;8.88;;;6.40;;
20462;SDS011;10390;53.566;9.980;2024-03-25T05:02:16;6.85;;;6.10;;
20462;SDS011;10390;53.566;9.980;2024-03-25T05:04:41;6.82;;;5.80;;
20462;SDS011;10390;53.566;9.980;2024-03-25T05:07:07;6.45;;;5.82;;
20462;SDS011;10390;53.566;9.980;2024-03-25T05:09:33;7.07;;;5.57;;
20462;SDS011;10390;53.566;9.980;2024-03-25T05:11:58;6.70;;;6.00;;
20462;SDS011;10390;53.566;9.980;2024-03-25T05:14:24;6.43;;;5.78;;
20462;SDS011;10390;53.566;9.980;2024-03-25T05:16:50;7.05;;;6.35;;
20462;SDS011;10390;53.566;9.980;2024-03-25T05:19:17;7.10;;;6.40;;
20462;SDS011;10390;53.566;9.980;2024-03-25T05:21:43;7.28;;;6.50;;
20462;SDS011;10390;53.566;9.980;2024-03-25T05:24:09;6.60;;;5.90;;
20462;SDS011;10390;53.566;9.980;2024-03-25T05:26:34;6.55;;;5.82;;
20462;SDS011;10390;53.566;9.980;2024-03-25T05:29:00;7.43;;;5.68;;
20462;SDS011;10390;53.566;9.980;2024-03-25T05:31:25;6.60;;;5.88;;
20462;SDS011;10390;53.566;9.980;2024-03-25T05:33:51;6.63;;;5.93;;
20462;SDS011;10390;53.566;9.980;2024-03-25T05:36:17;6.35;;;5.72;;
20462;SDS011;10390;53.566;9.980;2024-03-25T05:38:42;7.07;;;6.05;;
20462;SDS011;10390;53.566;9.980;2024-03-25T05:41:08;7.38;;;6.68;;
20462;SDS011;10390;53.566;9.980;2024-03-25T05:43:34;7.05;;;6.35;;
20462;SDS011;10390;53.566;9.980;2024-03-25T05:46:00;7.45;;;6.65;;
20462;SDS011;10390;53.566;9.980;2024-03-25T05:48:26;8.02;;;6.72;;
20462;SDS011;10390;53.566;9.980;2024-03-25T05:53:27;7.65;;;6.85;;
20462;SDS011;10390;53.566;9.980;2024-03-25T05:55:53;6.72;;;5.82;;
20462;SDS011;10390;53.566;9.980;2024-03-25T05:58:19;7.50;;;6.80;;
20462;SDS011;10390;53.566;9.980;2024-03-25T06:00:48;7.03;;;6.32;;
20462;SDS011;10390;53.566;9.980;2024-03-25T06:03:14;8.70;;;7.10;;
20462;SDS011;10390;53.566;9.980;2024-03-25T06:05:39;6.85;;;6.00;;
20462;SDS011;10390;53.566;9.980;2024-03-25T06:08:06;7.65;;;6.47;;
20462;SDS011;10390;53.566;9.980;2024-03-25T06:10:38;7.25;;;6.55;;
20462;SDS011;10390;53.566;9.980;2024-03-25T06:13:04;7.82;;;7.07;;
20462;SDS011;10390;53.566;9.980;2024-03-25T06:15:30;7.45;;;6.75;;
20462;SDS011;10390;53.566;9.980;2024-03-25T06:17:55;8.48;;;7.25;;
20462;SDS011;10390;53.566;9.980;2024-03-25T06:20:21;7.75;;;7.00;;
20462;SDS011;10390;53.566;9.980;2024-03-25T06:22:46;7.82;;;7.13;;
20462;SDS011;10390;53.566;9.980;2024-03-25T06:25:12;8.75;;;7.85;;
20462;SDS011;10390;53.566;9.980;2024-03-25T06:27:38;8.63;;;7.82;;
20462;SDS011;10390;53.566;9.980;2024-03-25T06:30:03;8.18;;;7.38;;
20462;SDS011;10390;53.566;9.980;2024-03-25T06:32:48;7.60;;;6.90;;
20462;SDS011;10390;53.566;9.980;2024-03-25T06:35:32;8.73;;;8.02;;
20462;SDS011;10390;53.566;9.980;2024-03-25T06:37:58;8.27;;;7.43;;
20462;SDS011;10390;53.566;9.980;2024-03-25T06:40:24;8.20;;;7.40;;
20462;SDS011;10390;53.566;9.980;2024-03-25T06:42:49;8.77;;;7.97;;
20462;SDS011;10390;53.566;9.980;2024-03-25T06:45:15;8.45;;;7.53;;
20462;SDS011;10390;53.566;9.980;2024-03-25T06:47:42;10.23;;;9.32;;
20462;SDS011;10390;53.566;9.980;2024-03-25T06:50:08;9.40;;;8.50;;
20462;SDS011;10390;53.566;9.980;2024-03-25T06:52:33;9.88;;;8.98;;
20462;SDS011;10390;53.566;9.980;2024-03-25T06:54:59;7.57;;;6.78;;
20462;SDS011;10390;53.566;9.980;2024-03-25T06:57:24;7.68;;;6.90;;
20462;SDS011;10390;53.566;9.980;2024-03-25T06:59:50;7.75;;;6.95;;
20462;SDS011;10390;53.566;9.980;2024-03-25T07:02:16;8.07;;;7.13;;
20462;SDS011;10390;53.566;9.980;2024-03-25T07:04:42;7.38;;;6.68;;
20462;SDS011;10390;53.566;9.980;2024-03-25T07:07:07;7.60;;;6.80;;
20462;SDS011;10390;53.566;9.980;2024-03-25T07:09:33;7.65;;;6.30;;
20462;SDS011;10390;53.566;9.980;2024-03-25T07:11:59;7.07;;;6.38;;
20462;SDS011;10390;53.566;9.980;2024-03-25T07:14:24;7.38;;;6.57;;
20462;SDS011;10390;53.566;9.980;2024-03-25T07:16:50;8.20;;;7.22;;
20462;SDS011;10390;53.566;9.980;2024-03-25T07:19:15;8.57;;;7.68;;
20462;SDS011;10390;53.566;9.980;2024-03-25T07:21:41;7.78;;;7.05;;
20462;SDS011;10390;53.566;9.980;2024-03-25T07:24:07;7.57;;;6.80;;
20462;SDS011;10390;53.566;9.980;2024-03-25T07:26:32;7.63;;;6.82;;
20462;SDS011;10390;53.566;9.980;2024-03-25T07:28:58;8.23;;;7.43;;
20462;SDS011;10390;53.566;9.980;2024-03-25T07:31:24;9.52;;;7.63;;
20462;SDS011;10390;53.566;9.980;2024-03-25T07:33:50;8.38;;;7.50;;
20462;SDS011;10390;53.566;9.980;2024-03-25T07:36:16;8.07;;;6.97;;
20462;SDS011;10390;53.566;9.980;2024-03-25T07:38:42;8.55;;;7.20;;
20462;SDS011;10390;53.566;9.980;2024-03-25T07:41:07;8.13;;;7.03;;
20462;SDS011;10390;53.566;9.980;2024-03-25T07:43:34;8.52;;;7.55;;
20462;SDS011;10390;53.566;9.980;2024-03-25T07:45:59;8.68;;;7.78;;
20462;SDS011;10390;53.566;9.980;2024-03-25T07:48:25;8.90;;;7.45;;
20462;SDS011;10390;53.566;9.980;2024-03-25T07:50:50;8.15;;;7.35;;
20462;SDS011;10390;53.566;9.980;2024-03-25T07:53:16;7.70;;;6.90;;
20462;SDS011;10390;53.566;9.980;2024-03-25T07:55:41;8.95;;;7.63;;
20462;SDS011;10390;53.566;9.980;2024-03-25T07:58:07;9.95;;;8.50;;
20462;SDS011;10390;53.566;9.980;2024-03-25T08:00:33;8.88;;;8.07;;
20462;SDS011;10390;53.566;9.980;2024-03-25T08:03:00;13.20;;;8.48;;
20462;SDS011;10390;53.566;9.980;2024-03-25T08:05:26;8.43;;;7.53;;
20462;SDS011;10390;53.566;9.980;2024-03-25T08:07:54;9.65;;;8.20;;
20462;SDS011;10390;53.566;9.980;2024-03-25T08:10:20;10.20;;;8.02;;
20462;SDS011;10390;53.566;9.980;2024-03-25T08:12:45;8.48;;;7.60;;
20462;SDS011;10390;53.566;9.980;2024-03-25T08:15:11;11.93;;;8.55;;
20462;SDS011;10390;53.566;9.980;2024-03-25T08:17:36;8.32;;;7.50;;
20462;SDS011;10390;53.566;9.980;2024-03-25T08:20:02;8.02;;;7.22;;
20462;SDS011;10390;53.566;9.980;2024-03-25T08:22:28;11.73;;;7.97;;
20462;SDS011;10390;53.566;9.980;2024-03-25T08:24:54;9.07;;;8.18;;
20462;SDS011;10390;53.566;9.980;2024-03-25T08:27:19;8.65;;;7.72;;
20462;SDS011;10390;53.566;9.980;2024-03-25T08:29:45;9.55;;;8.60;;
20462;SDS011;10390;53.566;9.980;2024-03-25T08:32:10;9.27;;;8.38;;
20462;SDS011;10390;53.566;9.980;2024-03-25T08:34:36;9.25;;;8.35;;
20462;SDS011;10390;53.566;9.980;2024-03-25T08:37:01;8.18;;;7.40;;
20462;SDS011;10390;53.566;9.980;2024-03-25T08:39:27;9.48;;;7.97;;
20462;SDS011;10390;53.566;9.980;2024-03-25T08:41:53;10.00;;;8.48;;
20462;SDS011;10390;53.566;9.980;2024-03-25T08:44:18;8.18;;;7.25;;
20462;SDS011;10390;53.566;9.980;2024-03-25T08:46:44;8.20;;;7.40;;
20462;SDS011;10390;53.566;9.980;2024-03-25T08:49:09;8.05;;;7.25;;
20462;SDS011;10390;53.566;9.980;2024-03-25T08:51:35;10.38;;;7.50;;
20462;SDS011;10390;53.566;9.980;2024-03-25T08:54:00;7.63;;;6.85;;
20462;SDS011;10390;53.566;9.980;2024-03-25T08:56:26;7.55;;;6.75;;
20462;SDS011;10390;53.566;9.980;2024-03-25T08:58:51;7.95;;;7.15;;
20462;SDS011;10390;53.566;9.980;2024-03-25T09:01:19;8.02;;;6.78;;
20462;SDS011;10390;53.566;9.980;2024-03-25T09:03:45;8.68;;;6.97;;
20462;SDS011;10390;53.566;9.980;2024-03-25T09:06:11;8.55;;;7.28;;
20462;SDS011;10390;53.566;9.980;2024-03-25T09:08:36;8.50;;;7.72;;
20462;SDS011;10390;53.566;9.980;2024-03-25T09:11:22;8.60;;;7.43;;
20462;SDS011;10390;53.566;9.980;2024-03-25T09:13:50;9.88;;;8.73;;
20462;SDS011;10390;53.566;9.980;2024-03-25T09:16:15;7.93;;;7.07;;
20462;SDS011;10390;53.566;9.980;2024-03-25T09:18:41;8.20;;;7.30;;
20462;SDS011;10390;53.566;9.980;2024-03-25T09:21:06;8.00;;;7.20;;
20462;SDS011;10390;53.566;9.980;2024-03-25T09:23:32;8.15;;;7.32;;
20462;SDS011;10390;53.566;9.980;2024-03-25T09:25:57;8.85;;;7.95;;
20462;SDS011;10390;53.566;9.980;2024-03-25T09:28:23;9.13;;;8.23;;
20462;SDS011;10390;53.566;9.980;2024-03-25T09:30:49;8.75;;;7.85;;
20462;SDS011;10390;53.566;9.980;2024-03-25T09:33:14;9.75;;;8.82;;
20462;SDS011;10390;53.566;9.980;2024-03-25T09:35:40;10.02;;;9.13;;
20462;SDS011;10390;53.566;9.980;2024-03-25T09:38:06;9.48;;;8.68;;
20462;SDS011;10390;53.566;9.980;2024-03-25T09:40:32;9.38;;;8.43;;
20462;SDS011;10390;53.566;9.980;2024-03-25T09:43:01;10.13;;;9.15;;
20462;SDS011;10390;53.566;9.980;2024-03-25T09:45:28;11.40;;;9.00;;
20462;SDS011;10390;53.566;9.980;2024-03-25T09:47:54;9.07;;;8.18;;
20462;SDS011;10390;53.566;9.980;2024-03-25T09:50:20;8.95;;;8.15;;
20462;SDS011;10390;53.566;9.980;2024-03-25T09:52:46;8.25;;;7.32;;
20462;SDS011;10390;53.566;9.980;2024-03-25T09:55:13;8.88;;;7.68;;
20462;SDS011;10390;53.566;9.980;2024-03-25T09:57:39;7.95;;;7.15;;
20462;SDS011;10390;53.566;9.980;2024-03-25T10:00:07;8.57;;;7.60;;
20462;SDS011;10390;53.566;9.980;2024-03-25T10:02:40;7.68;;;6.97;;
20462;SDS011;10390;53.566;9.980;2024-03-25T10:05:06;8.23;;;7.43;;
20462;SDS011;10390;53.566;9.980;2024-03-25T10:07:32;8.75;;;7.95;;
20462;SDS011;10390;53.566;9.980;2024-03-25T10:09:58;7.82;;;7.10;;
20462;SDS011;10390;53.566;9.980;2024-03-25T10:12:24;9.07;;;8.27;;
20462;SDS011;10390;53.566;9.980;2024-03-25T10:14:49;8.77;;;7.97;;
20462;SDS011;10390;53.566;9.980;2024-03-25T10:17:15;8.27;;;7.47;;
20462;SDS011;10390;53.566;9.980;2024-03-25T10:19:41;8.70;;;7.78;;
20462;SDS011;10390;53.566;9.980;2024-03-25T10:22:09;8.40;;;7.60;;
20462;SDS011;10390;53.566;9.980;2024-03-25T10:24:38;8.48;;;7.68;;
20462;SDS011;10390;53.566;9.980;2024-03-25T10:27:04;9.38;;;7.45;;
20462;SDS011;10390;53.566;9.980;2024-03-25T10:29:30;8.45;;;7.65;;
20462;SDS011;10390;53.566;9.980;2024-03-25T10:31:59;7.68;;;6.97;;
20462;SDS011;10390;53.566;9.980;2024-03-25T10:34:26;7.80;;;7.10;;
20462;SDS011;10390;53.566;9.980;2024-03-25T10:36:52;9.45;;;7.63;;
20462;SDS011;10390;53.566;9.980;2024-03-25T10:39:24;8.55;;;7.63;;
20462;SDS011;10390;53.566;9.980;2024-03-25T10:41:54;8.35;;;7.55;;
20462;SDS011;10390;53.566;9.980;2024-03-25T10:44:21;8.48;;;7.68;;
20462;SDS011;10390;53.566;9.980;2024-03-25T10:46:49;8.10;;;7.30;;
20462;SDS011;10390;53.566;9.980;2024-03-25T10:49:38;8.60;;;7.70;;
20462;SDS011;10390;53.566;9.980;2024-03-25T10:52:21;8.75;;;7.95;;
20462;SDS011;10390;53.566;9.980;2024-03-25T10:54:48;8.55;;;7.70;;
20462;SDS011;10390;53.566;9.980;2024-03-25T10:57:14;8.30;;;7.18;;
20462;SDS011;10390;53.566;9.980;2024-03-25T10:59:44;8.45;;;7.65;;
20462;SDS011;10390;53.566;9.980;2024-03-25T11:02:10;8.63;;;7.75;;
20462;SDS011;10390;53.566;9.980;2024-03-25T11:04:37;8.98;;;8.15;;
20462;SDS011;10390;53.566;9.980;2024-03-25T11:07:07;8.40;;;7.60;;
20462;SDS011;10390;53.566;9.980;2024-03-25T11:09:32;8.70;;;7.90;;
20462;SDS011;10390;53.566;9.980;2024-03-25T11:11:58;8.80;;;8.00;;
20462;SDS011;10390;53.566;9.980;2024-03-25T11:14:27;8.70;;;7.90;;
20462;SDS011;10390;53.566;9.980;2024-03-25T11:16:53;8.75;;;7.95;;
20462;SDS011;10390;53.566;9.980;2024-03-25T11:19:20;8.43;;;7.63;;
20462;SDS011;10390;53.566;9.980;2024-03-25T11:21:46;8.25;;;7.55;;
20462;SDS011;10390;53.566;9.980;2024-03-25T11:24:12;8.70;;;7.90;;
20462;SDS011;10390;53.566;9.980;2024-03-25T11:26:41;8.48;;;7.68;;
20462;SDS011;10390;53.566;9.980;2024-03-25T11:29:07;8.50;;;7.45;;
20462;SDS011;10390;53.566;9.980;2024-03-25T11:31:33;8.07;;;7.38;;
20462;SDS011;10390;53.566;9.980;2024-03-25T11:34:05;7.90;;;7.18;;
20462;SDS011;10390;53.566;9.980;2024-03-25T11:36:33;8.48;;;7.78;;
20462;SDS011;10390;53.566;9.980;2024-03-25T11:39:02;8.30;;;7.50;;
20462;SDS011;10390;53.566;9.980;2024-03-25T11:41:30;8.82;;;8.02;;
20462;SDS011;10390;53.566;9.980;2024-03-25T11:43:57;8.35;;;7.65;;
20462;SDS011;10390;53.566;9.980;2024-03-25T11:46:26;8.52;;;7.72;;
20462;SDS011;10390;53.566;9.980;2024-03-25T11:48:52;8.05;;;7.25;;
20462;SDS011;10390;53.566;9.980;2024-03-25T11:51:18;8.05;;;7.25;;
20462;SDS011;10390;53.566;9.980;2024-03-25T11:53:44;8.20;;;7.40;;
20462;SDS011;10390;53.566;9.980;2024-03-25T11:56:10;8.60;;;7.80;;
20462;SDS011;10390;53.566;9.980;2024-03-25T11:58:37;8.30;;;7.50;;
20462;SDS011;10390;53.566;9.980;2024-03-25T12:01:03;8.43;;;7.53;;
20462;SDS011;10390;53.566;9.980;2024-03-25T12:03:28;8.93;;;8.02;;
20462;SDS011;10390;53.566;9.980;2024-03-25T12:05:55;8.57;;;7.78;;
20462;SDS011;10390;53.566;9.980;2024-03-25T12:08:21;8.73;;;7.93;;
20462;SDS011;10390;53.566;9.980;2024-03-25T12:10:50;8.80;;;8.00;;
20462;SDS011;10390;53.566;9.980;2024-03-25T12:13:36;8.45;;;7.63;;
20462;SDS011;10390;53.566;9.980;2024-03-25T12:16:06;9.18;;;8.27;;
20462;SDS011;10390;53.566;9.980;2024-03-25T12:18:33;8.88;;;7.97;;
20462;SDS011;10390;53.566;9.980;2024-03-25T12:21:00;8.77;;;7.97;;
20462;SDS011;10390;53.566;9.980;2024-03-25T12:23:31;8.65;;;7.85;;
20462;SDS011;10390;53.566;9.980;2024-03-25T12:26:01;8.43;;;7.55;;
20462;SDS011;10390;53.566;9.980;2024-03-25T12:28:28;7.90;;;7.20;;
20462;SDS011;10390;53.566;9.980;2024-03-25T12:30:54;9.30;;;8.50;;
20462;SDS011;10390;53.566;9.980;2024-03-25T12:33:23;8.50;;;7.70;;
20462;SDS011;10390;53.566;9.980;2024-03-25T12:35:49;8.52;;;7.72;;
20462;SDS011;10390;53.566;9.980;2024-03-25T12:40:51;8.88;;;8.07;;
20462;SDS011;10390;53.566;9.980;2024-03-25T12:43:17;9.32;;;8.45;;
20462;SDS011;10390;53.566;9.980;2024-03-25T12:45:43;8.45;;;7.68;;
20462;SDS011;10390;53.566;9.980;2024-03-25T12:48:09;9.50;;;8.68;;
20462;SDS011;10390;53.566;9.980;2024-03-25T12:50:35;8.98;;;8.07;;
20462;SDS011;10390;53.566;9.980;2024-03-25T12:53:01;10.70;;;9.80;;
20462;SDS011;10390;53.566;9.980;2024-03-25T12:55:28;9.52;;;8.63;;
20462;SDS011;10390;53.566;9.980;2024-03-25T12:57:57;8.48;;;7.68;;
20462;SDS011;10390;53.566;9.980;2024-03-25T13:00:22;8.15;;;7.40;;
20462;SDS011;10390;53.566;9.980;2024-03-25T13:02:48;9.77;;;8.77;;
20462;SDS011;10390;53.566;9.980;2024-03-25T13:05:15;9.55;;;8.60;;
20462;SDS011;10390;53.566;9.980;2024-03-25T13:07:41;11.05;;;8.20;;
20462;SDS011;10390;53.566;9.980;2024-03-25T13:10:06;10.77;;;8.20;;
20462;SDS011;10390;53.566;9.980;2024-03-25T13:12:32;8.85;;;7.90;;
20462;SDS011;10390;53.566;9.980;2024-03-25T13:14:58;15.13;;;9.80;;
20462;SDS011;10390;53.566;9.980;2024-03-25T13:17:24;12.02;;;9.70;;
20462;SDS011;10390;53.566;9.980;2024-03-25T13:19:50;12.50;;;9.63;;
20462;SDS011;10390;53.566;9.980;2024-03-25T13:22:15;14.73;;;9.45;;
20462;SDS011;10390;53.566;9.980;2024-03-25T13:24:41;12.93;;;9.52;;
20462;SDS011;10390;53.566;9.980;2024-03-25T13:27:06;13.85;;;10.10;;
20462;SDS011;10390;53.566;9.980;2024-03-25T13:29:32;13.10;;;9.52;;
20462;SDS011;10390;53.566;9.980;2024-03-25T13:32:01;11.13;;;8.70;;
20462;SDS011;10390;53.566;9.980;2024-03-25T13:34:27;11.35;;;8.82;;
20462;SDS011;10390;53.566;9.980;2024-03-25T13:36:52;12.18;;;9.73;;
20462;SDS011;10390;53.566;9.980;2024-03-25T13:39:18;13.15;;;9.77;;
20462;SDS011;10390;53.566;9.980;2024-03-25T13:41:43;14.57;;;9.98;;
20462;SDS011;10390;53.566;9.980;2024-03-25T13:44:10;11.45;;;10.30;;
20462;SDS011;10390;53.566;9.980;2024-03-25T13:46:36;13.93;;;9.45;;
20462;SDS011;10390;53.566;9.980;2024-03-25T13:49:01;12.52;;;9.77;;
20462;SDS011;10390;53.566;9.980;2024-03-25T13:51:27;12.43;;;9.63;;
20462;SDS011;10390;53.566;9.980;2024-03-25T13:53:53;14.15;;;9.73;;
20462;SDS011;10390;53.566;9.980;2024-03-25T13:56:19;13.00;;;9.73;;
20462;SDS011;10390;53.566;9.980;2024-03-25T13:58:44;10.85;;;8.30;;
20462;SDS011;10390;53.566;9.980;2024-03-25T14:01:10;12.40;;;9.43;;
20462;SDS011;10390;53.566;9.980;2024-03-25T14:03:35;11.85;;;8.90;;
20462;SDS011;10390;53.566;9.980;2024-03-25T14:06:01;10.93;;;8.75;;
20462;SDS011;10390;53.566;9.980;2024-03-25T14:08:27;12.52;;;8.85;;
20462;SDS011;10390;53.566;9.980;2024-03-25T14:10:56;11.98;;;9.70;;
20462;SDS011;10390;53.566;9.980;2024-03-25T14:13:23;15.05;;;9.15;;
20462;SDS011;10390;53.566;9.980;2024-03-25T14:15:49;10.98;;;9.30;;
20462;SDS011;10390;53.566;9.980;2024-03-25T14:18:15;11.38;;;9.27;;
20462;SDS011;10390;53.566;9.980;2024-03-25T14:20:41;12.07;;;8.80;;
20462;SDS011;10390;53.566;9.980;2024-03-25T14:23:06;11.02;;;8.93;;
20462;SDS011;10390;53.566;9.980;2024-03-25T14:25:32;12.00;;;9.35;;
20462;SDS011;10390;53.566;9.980;2024-03-25T14:27:58;12.73;;;9.40;;
20462;SDS011;10390;53.566;9.980;2024-03-25T14:30:23;13.50;;;9.77;;
20462;SDS011;10390;53.566;9.980;2024-03-25T14:32:49;12.02;;;9.18;;
20462;SDS011;10390;53.566;9.980;2024-03-25T14:35:15;12.25;;;9.05;;
20462;SDS011;10390;53.566;9.980;2024-03-25T14:37:40;11.32;;;8.32;;
20462;SDS011;10390;53.566;9.980;2024-03-25T14:40:06;13.43;;;9.38;;
20462;SDS011;10390;53.566;9.980;2024-03-25T14:42:32;11.05;;;9.23;;
20462;SDS011;10390;53.566;9.980;2024-03-25T14:44:57;11.48;;;9.27;;